This is the latest recevied weather packets stored in our database for station/object DC4AT. If no packets are shown the sender has not sent any weather packets the latest 10 day(s).
| Time | Temp. | Humidity | Pressure | Rain* | Wind** | Luminosity | Snow |
|---|---|---|---|---|---|---|---|
| 1777490632 | 8.89° C | 50% | 1029.9 hPa | 0 mm | - | 0 W/m² | - |
| 1777490032 | 9.44° C | 50% | 1029.8 hPa | 0 mm | - | 0 W/m² | - |
| 1777489432 | 10° C | 47% | 1029.7 hPa | 0 mm | - | 0 W/m² | - |
| 1777487032 | 11.67° C | 42% | 1029.3 hPa | 0 mm | - | 21 W/m² | - |
| 1777485832 | 11.67° C | 41% | 1029 hPa | 0 mm | - | 51 W/m² | - |
| 1777484032 | 12.78° C | 40% | 1028.7 hPa | 0 mm | - | 120 W/m² | - |
| 1777483432 | 12.78° C | 40% | 1028.6 hPa | 0 mm | - | 144 W/m² | - |
| 1777482832 | 12.78° C | 38% | 1028.6 hPa | 0 mm | - | 169 W/m² | - |
| 1777482232 | 13.33° C | 39% | 1028.5 hPa | 0 mm | - | 192 W/m² | - |
| 1777481632 | 13.33° C | 40% | 1028.6 hPa | 0 mm | - | 218 W/m² | - |
| 1777480432 | 13.33° C | 39% | 1028.5 hPa | 0 mm | - | 264 W/m² | - |
| 1777479832 | 13.33° C | 41% | 1028.4 hPa | 0 mm | - | 285 W/m² | - |
| 1777479232 | 13.33° C | 40% | 1028.4 hPa | 0 mm | - | 125 W/m² | - |
| 1777478632 | 13.33° C | 39% | 1028.4 hPa | 0 mm | - | 49 W/m² | - |
| 1777476832 | 13.89° C | 36% | 1028.3 hPa | 0 mm | - | 118 W/m² | - |
| 1777472032 | 14.44° C | 37% | 1028.3 hPa | 0 mm | - | 568 W/m² | - |
| 1777471433 | 14.44° C | 36% | 1028.2 hPa | 0 mm | - | 587 W/m² | - |
| 1777470833 | 14.44° C | 36% | 1028.3 hPa | 0 mm | - | 603 W/m² | - |
| 1777470233 | 14.44° C | 36% | 1028.2 hPa | 0 mm | - | 615 W/m² | - |
| 1777469633 | 14.44° C | 37% | 1028.3 hPa | 0 mm | - | 628 W/m² | - |
| 1777469033 | 14.44° C | 35% | 1028.2 hPa | 0 mm | - | 643 W/m² | - |
| 1777468433 | 14.44° C | 37% | 1028.2 hPa | 0 mm | - | 656 W/m² | - |
| 1777467833 | 14.44° C | 37% | 1028.2 hPa | 0 mm | - | 664 W/m² | - |
| 1777467233 | 14.44° C | 36% | 1028.1 hPa | 0 mm | - | 671 W/m² | - |
| 1777466633 | 14.44° C | 34% | 1028.1 hPa | 0 mm | - | 682 W/m² | - |
* Rain latest hour (hover to see other rain measurements)
** Current wind speed in m/s (hover to see current wind gust speed)